createdAt,value
2018-05-24T00:00:08.967Z,53.45
2018-05-24T00:02:37.357Z,53.40
2018-05-24T00:05:05.643Z,52.98
2018-05-24T00:07:33.908Z,54.16
2018-05-24T00:10:02.305Z,53.51
2018-05-24T00:12:30.657Z,53.51
2018-05-24T00:14:59.673Z,53.92
2018-05-24T00:17:28.726Z,53.42
2018-05-24T00:19:56.994Z,53.38
2018-05-24T00:22:25.259Z,53.30
2018-05-24T00:24:54.377Z,53.40
2018-05-24T00:27:23.416Z,53.76
2018-05-24T00:29:51.693Z,53.33
2018-05-24T00:32:20.078Z,54.21
2018-05-24T00:34:48.329Z,53.41
2018-05-24T00:37:16.659Z,54.28
2018-05-24T00:39:45.762Z,53.22
2018-05-24T00:42:14.029Z,53.40
2018-05-24T00:44:42.304Z,53.05
2018-05-24T00:47:10.581Z,52.58
2018-05-24T00:49:38.948Z,53.14
2018-05-24T00:52:07.371Z,52.35
2018-05-24T00:54:35.777Z,52.47
2018-05-24T00:57:03.946Z,52.79
2018-05-24T00:59:32.226Z,52.40
2018-05-24T01:02:00.587Z,52.85
2018-05-24T01:04:28.846Z,51.28
2018-05-24T01:06:57.127Z,51.60
2018-05-24T01:09:25.412Z,52.02
2018-05-24T01:11:53.767Z,50.44
2018-05-24T01:14:22.034Z,50.61
2018-05-24T01:16:51.076Z,49.95
2018-05-24T01:19:19.419Z,50.59
2018-05-24T01:21:48.543Z,50.63
2018-05-24T01:24:16.851Z,50.82
2018-05-24T01:26:45.144Z,50.82
2018-05-24T01:29:13.405Z,50.65
2018-05-24T01:31:42.454Z,50.31
2018-05-24T01:34:10.720Z,50.62
2018-05-24T01:36:56.711Z,50.52
2018-05-24T01:39:25.820Z,50.82
2018-05-24T01:41:54.827Z,50.62
2018-05-24T01:44:23.882Z,51.18
2018-05-24T01:46:52.139Z,50.42
2018-05-24T01:49:20.460Z,51.07
2018-05-24T01:51:48.822Z,50.95
2018-05-24T01:54:17.950Z,50.27
2018-05-24T01:56:46.227Z,50.54
2018-05-24T01:59:14.614Z,51.16
2018-05-24T02:01:42.889Z,50.76
2018-05-24T02:04:11.937Z,50.36
2018-05-24T02:06:40.318Z,50.79
2018-05-24T02:09:08.599Z,50.37
2018-05-24T02:11:36.986Z,50.33
2018-05-24T02:14:05.327Z,49.92
2018-05-24T02:16:33.773Z,49.79
2018-05-24T02:19:02.039Z,49.97
2018-05-24T02:21:31.160Z,50.14
2018-05-24T02:24:00.903Z,49.88
2018-05-24T02:26:29.172Z,50.34
2018-05-24T02:28:58.203Z,49.96
2018-05-24T02:31:26.448Z,49.95
2018-05-24T02:33:54.727Z,49.91
2018-05-24T02:36:23.010Z,49.77
2018-05-24T02:38:51.271Z,49.01
2018-05-24T02:41:19.518Z,50.92
2018-05-24T02:43:48.563Z,54.13
2018-05-24T02:46:16.830Z,53.71
2018-05-24T02:48:45.863Z,52.21
2018-05-24T02:51:14.128Z,51.52
2018-05-24T02:53:43.173Z,51.39
2018-05-24T02:56:11.446Z,51.47
2018-05-24T02:58:39.749Z,51.07
2018-05-24T03:01:08.012Z,50.76
2018-05-24T03:03:36.302Z,51.36
2018-05-24T03:06:04.599Z,50.68
2018-05-24T03:08:32.870Z,51.63
2018-05-24T03:11:01.890Z,51.44
2018-05-24T03:13:30.188Z,51.85
2018-05-24T03:15:58.556Z,52.27
2018-05-24T03:18:27.610Z,52.82
2018-05-24T03:20:55.868Z,52.25
2018-05-24T03:23:24.133Z,51.66
2018-05-24T03:25:53.273Z,51.80
2018-05-24T03:28:21.561Z,52.36
2018-05-24T03:30:49.807Z,52.48
2018-05-24T03:33:18.071Z,53.58
2018-05-24T03:35:46.419Z,54.38
2018-05-24T03:38:15.538Z,54.06
2018-05-24T03:40:43.829Z,54.52
2018-05-24T03:43:12.887Z,54.92
2018-05-24T03:45:41.931Z,55.44
2018-05-24T03:48:10.970Z,56.07
2018-05-24T03:50:39.273Z,56.57
2018-05-24T03:53:07.552Z,57.54
2018-05-24T03:55:35.820Z,57.71
2018-05-24T03:58:04.103Z,57.94
2018-05-24T04:00:50.148Z,58.30
2018-05-24T04:03:36.395Z,58.94
2018-05-24T04:06:04.716Z,59.41
2018-05-24T04:08:33.937Z,59.42
2018-05-24T04:11:03.092Z,59.79
2018-05-24T04:13:31.351Z,60.13
2018-05-24T04:15:59.626Z,59.82
2018-05-24T04:18:27.915Z,62.27
2018-05-24T04:20:56.936Z,65.86
2018-05-24T04:23:25.222Z,71.14
2018-05-24T04:25:54.274Z,72.50
2018-05-24T04:28:22.539Z,73.82
2018-05-24T04:30:50.792Z,73.84
2018-05-24T04:33:19.914Z,71.35
2018-05-24T04:35:48.168Z,71.44
2018-05-24T04:38:16.482Z,74.49
2018-05-24T04:40:45.558Z,73.58
2018-05-24T04:43:13.917Z,72.56
2018-05-24T04:45:42.271Z,74.02
2018-05-24T04:48:11.404Z,77.34
2018-05-24T04:50:39.664Z,77.95
2018-05-24T04:53:07.948Z,78.72
2018-05-24T04:55:36.281Z,82.02
2018-05-24T04:58:04.531Z,81.52
2018-05-24T05:00:32.781Z,82.38
2018-05-24T05:03:02.882Z,82.19
2018-05-24T05:05:31.132Z,82.67
2018-05-24T05:07:59.420Z,82.70
2018-05-24T05:10:29.066Z,83.37
2018-05-24T05:12:57.594Z,83.46
2018-05-24T05:15:26.524Z,82.01
2018-05-24T05:17:56.213Z,83.21
2018-05-24T05:20:26.828Z,83.95
2018-05-24T05:22:55.171Z,82.39
2018-05-24T05:25:28.618Z,79.71
2018-05-24T05:27:56.956Z,80.58
2018-05-24T05:30:26.709Z,82.87
2018-05-24T05:32:56.202Z,82.49
2018-05-24T05:35:25.724Z,83.54
2018-05-24T05:37:54.137Z,81.72
2018-05-24T05:40:22.840Z,82.88
2018-05-24T05:42:51.402Z,83.08
2018-05-24T05:45:19.931Z,83.15
2018-05-24T05:47:48.219Z,84.26
2018-05-24T05:50:16.476Z,83.98
2018-05-24T05:52:44.759Z,84.62
2018-05-24T05:55:13.053Z,85.21
2018-05-24T05:57:42.083Z,85.88
2018-05-24T06:00:12.257Z,85.70
2018-05-24T06:02:41.672Z,86.16
2018-05-24T06:05:10.067Z,86.23
2018-05-24T06:07:38.503Z,86.77
2018-05-24T06:10:07.058Z,86.30
2018-05-24T06:12:35.316Z,86.80
2018-05-24T06:15:03.590Z,85.97
2018-05-24T06:17:31.893Z,85.75
2018-05-24T06:20:00.178Z,85.85
2018-05-24T06:22:28.457Z,85.92
2018-05-24T06:24:56.741Z,85.08
2018-05-24T06:27:25.021Z,85.33
2018-05-24T06:29:54.259Z,85.38
2018-05-24T06:32:22.522Z,85.37
2018-05-24T06:34:50.815Z,85.67
2018-05-24T06:37:19.169Z,84.93
2018-05-24T06:39:48.259Z,84.19
2018-05-24T06:42:16.505Z,84.74
2018-05-24T06:44:44.784Z,84.68
2018-05-24T06:47:13.074Z,85.13
2018-05-24T06:49:41.323Z,84.65
2018-05-24T06:52:09.606Z,85.46
2018-05-24T06:54:37.888Z,84.15
2018-05-24T06:57:06.265Z,83.59
2018-05-24T06:59:34.522Z,83.84
2018-05-24T07:02:03.573Z,80.95
2018-05-24T07:04:31.853Z,82.54
2018-05-24T07:07:00.232Z,81.54
2018-05-24T07:09:28.500Z,82.28
2018-05-24T07:11:57.548Z,78.97
2018-05-24T07:14:25.813Z,80.48
2018-05-24T07:16:54.113Z,80.17
2018-05-24T07:19:22.405Z,79.78
2018-05-24T07:21:50.698Z,78.22
2018-05-24T07:24:19.087Z,80.73
2018-05-24T07:26:47.355Z,79.52
2018-05-24T07:29:16.483Z,79.91
2018-05-24T07:31:45.950Z,79.00
2018-05-24T07:34:14.231Z,78.08
2018-05-24T07:36:42.515Z,78.08
2018-05-24T07:39:10.835Z,75.02
2018-05-24T07:41:39.149Z,75.09
2018-05-24T07:44:07.562Z,77.58
2018-05-24T07:46:35.880Z,75.21
2018-05-24T07:49:04.136Z,76.00
2018-05-24T07:51:32.421Z,77.59
2018-05-24T07:54:01.444Z,74.21
2018-05-24T07:56:29.695Z,74.36
2018-05-24T08:01:33.434Z,70.57
2018-05-24T08:04:01.644Z,70.91
2018-05-24T08:06:30.725Z,74.59
2018-05-24T08:08:59.066Z,71.68
2018-05-24T08:11:28.155Z,71.53
2018-05-24T08:13:57.273Z,68.85
2018-05-24T08:16:25.535Z,67.31
2018-05-24T08:18:53.801Z,69.22
2018-05-24T08:21:22.167Z,69.65
2018-05-24T08:23:50.450Z,68.67
2018-05-24T08:26:18.941Z,66.26
2018-05-24T08:28:47.214Z,65.03
2018-05-24T08:31:16.245Z,63.64
2018-05-24T08:33:44.626Z,61.90
2018-05-24T08:36:13.650Z,61.99
2018-05-24T08:38:41.949Z,64.18
2018-05-24T08:41:10.284Z,61.71
2018-05-24T08:43:38.607Z,59.76
2018-05-24T08:46:06.975Z,60.98
2018-05-24T08:48:35.273Z,61.92
2018-05-24T08:51:03.524Z,62.38
2018-05-24T08:53:31.783Z,61.52
2018-05-24T08:56:00.170Z,62.10
2018-05-24T08:58:28.440Z,65.23
2018-05-24T09:00:57.496Z,64.32
2018-05-24T09:03:25.817Z,66.95
2018-05-24T09:05:54.109Z,65.63
2018-05-24T09:08:22.383Z,64.85
2018-05-24T09:10:50.734Z,63.85
2018-05-24T09:13:19.001Z,63.67
2018-05-24T09:15:48.115Z,65.68
2018-05-24T09:18:17.143Z,64.70
2018-05-24T09:20:45.395Z,65.04
2018-05-24T09:23:14.447Z,63.14
2018-05-24T09:25:42.808Z,62.56
2018-05-24T09:28:11.862Z,62.83
2018-05-24T09:30:40.168Z,66.04
2018-05-24T09:33:08.451Z,66.61
2018-05-24T09:35:36.798Z,65.92
2018-05-24T09:38:05.849Z,64.96
2018-05-24T09:40:34.934Z,66.08
2018-05-24T09:43:03.198Z,65.89
2018-05-24T09:45:32.327Z,65.92
2018-05-24T09:48:00.591Z,66.44
2018-05-24T09:50:29.724Z,67.05
2018-05-24T09:52:57.993Z,65.46
2018-05-24T09:55:27.129Z,67.24
2018-05-24T09:57:55.385Z,68.03
2018-05-24T10:00:23.704Z,67.04
2018-05-24T10:02:51.943Z,67.02
2018-05-24T10:05:20.214Z,66.21
2018-05-24T10:07:48.497Z,66.63
2018-05-24T10:10:16.766Z,64.44
2018-05-24T10:12:45.067Z,61.91
2018-05-24T10:15:13.345Z,61.79
2018-05-24T10:17:41.614Z,60.12
2018-05-24T10:20:10.714Z,61.61
2018-05-24T10:22:39.760Z,60.75
2018-05-24T10:25:08.138Z,60.65
2018-05-24T10:27:36.387Z,60.30
2018-05-24T10:30:04.690Z,60.09
2018-05-24T10:32:32.997Z,61.10
2018-05-24T10:35:02.050Z,60.35
2018-05-24T10:37:30.329Z,60.01
2018-05-24T10:39:58.578Z,59.08
2018-05-24T10:42:27.609Z,57.60
2018-05-24T10:44:55.905Z,57.42
2018-05-24T10:47:24.181Z,56.60
2018-05-24T10:49:52.465Z,57.06
2018-05-24T10:52:20.723Z,55.69
2018-05-24T10:54:48.983Z,55.31
2018-05-24T10:57:17.261Z,56.79
2018-05-24T10:59:45.560Z,56.18
2018-05-24T11:02:13.812Z,55.67
2018-05-24T11:04:42.895Z,56.00
2018-05-24T11:07:11.309Z,55.51
2018-05-24T11:09:40.346Z,56.42
2018-05-24T11:12:08.627Z,54.90
2018-05-24T11:14:36.950Z,53.27
2018-05-24T11:17:05.243Z,53.00
2018-05-24T11:19:33.506Z,52.86
2018-05-24T11:22:01.807Z,51.25
2018-05-24T11:24:30.055Z,51.66
2018-05-24T11:26:58.330Z,53.66
2018-05-24T11:29:26.674Z,52.45
2018-05-24T11:31:55.170Z,51.86
2018-05-24T11:34:23.437Z,49.08
2018-05-24T11:36:52.513Z,48.88
2018-05-24T11:39:20.742Z,50.32
2018-05-24T11:41:48.994Z,49.48
2018-05-24T11:44:17.283Z,48.32
2018-05-24T11:46:45.543Z,49.46
2018-05-24T11:49:13.807Z,52.94
2018-05-24T11:51:42.097Z,51.80
2018-05-24T11:54:10.381Z,51.80
2018-05-24T11:56:38.643Z,52.09
2018-05-24T11:59:07.767Z,50.81
2018-05-24T12:01:37.281Z,51.60
2018-05-24T12:04:06.426Z,50.99
2018-05-24T12:06:34.697Z,51.46
2018-05-24T12:09:02.983Z,52.48
2018-05-24T12:11:31.240Z,51.06
2018-05-24T12:13:59.536Z,52.85
2018-05-24T12:16:28.557Z,52.66
2018-05-24T12:18:57.608Z,52.42
2018-05-24T12:21:25.889Z,52.40
2018-05-24T12:23:54.265Z,52.13
2018-05-24T12:26:23.293Z,51.24
2018-05-24T12:28:51.556Z,52.16
2018-05-24T12:31:19.839Z,50.68
2018-05-24T12:33:48.859Z,49.41
2018-05-24T12:36:17.906Z,47.98
2018-05-24T12:38:46.163Z,45.87
2018-05-24T12:41:14.424Z,46.82
2018-05-24T12:43:43.523Z,45.11
2018-05-24T12:46:11.783Z,44.40
2018-05-24T12:48:40.057Z,45.29
2018-05-24T12:51:08.334Z,44.46
2018-05-24T12:53:36.606Z,44.67
2018-05-24T12:56:04.875Z,44.50
2018-05-24T12:58:33.153Z,45.66
2018-05-24T13:01:01.424Z,45.52
2018-05-24T13:03:29.688Z,47.31
2018-05-24T13:05:57.954Z,46.21
2018-05-24T13:08:26.976Z,47.63
2018-05-24T13:10:55.252Z,45.41
2018-05-24T13:13:24.368Z,46.99
2018-05-24T13:15:53.372Z,47.26
2018-05-24T13:18:21.668Z,47.21
2018-05-24T13:20:49.955Z,48.01
2018-05-24T13:23:18.212Z,48.39
2018-05-24T13:25:46.477Z,48.22
2018-05-24T13:28:14.758Z,48.26
2018-05-24T13:30:43.785Z,47.37
2018-05-24T13:33:12.032Z,46.05
2018-05-24T13:35:40.418Z,44.78
2018-05-24T13:38:08.704Z,44.03
2018-05-24T13:40:37.090Z,43.87
2018-05-24T13:43:05.396Z,44.06
2018-05-24T13:45:33.667Z,43.08
2018-05-24T13:48:02.793Z,44.39
2018-05-24T13:50:31.065Z,44.09
2018-05-24T13:53:00.094Z,44.67
2018-05-24T13:55:28.358Z,44.81
2018-05-24T13:57:57.421Z,44.88
2018-05-24T14:00:25.694Z,45.54
2018-05-24T14:02:53.974Z,44.74
2018-05-24T14:05:22.245Z,44.56
2018-05-24T14:07:51.275Z,45.74
2018-05-24T14:10:19.583Z,44.25
2018-05-24T14:12:48.662Z,44.36
2018-05-24T14:15:16.962Z,45.58
2018-05-24T14:17:45.217Z,47.21
2018-05-24T14:20:14.263Z,48.56
2018-05-24T14:22:42.533Z,48.26
2018-05-24T14:25:11.569Z,49.83
2018-05-24T14:27:39.851Z,50.01
2018-05-24T14:30:08.145Z,51.35
2018-05-24T14:32:38.136Z,52.07
2018-05-24T14:35:06.561Z,52.10
2018-05-24T14:37:34.902Z,52.51
2018-05-24T14:40:03.161Z,54.31
2018-05-24T14:42:31.526Z,57.76
2018-05-24T14:45:00.561Z,60.12
2018-05-24T14:47:28.816Z,59.89
2018-05-24T14:49:57.895Z,60.66
2018-05-24T14:52:26.147Z,60.04
2018-05-24T14:54:54.423Z,62.27
2018-05-24T14:57:22.698Z,61.83
2018-05-24T14:59:51.011Z,63.55
2018-05-24T15:02:19.297Z,71.58
2018-05-24T15:04:47.574Z,75.04
2018-05-24T15:07:15.862Z,75.80
2018-05-24T15:09:44.138Z,76.05
2018-05-24T15:12:13.258Z,77.76
2018-05-24T15:14:41.528Z,78.43
2018-05-24T15:17:09.811Z,78.12
2018-05-24T15:19:38.113Z,78.26
2018-05-24T15:22:06.498Z,79.93
2018-05-24T15:24:34.849Z,79.37
2018-05-24T15:27:03.218Z,79.63
2018-05-24T15:29:31.470Z,78.60
2018-05-24T15:31:59.769Z,81.61
2018-05-24T15:34:28.819Z,80.57
2018-05-24T15:36:58.631Z,77.55
2018-05-24T15:39:26.925Z,78.12
2018-05-24T15:41:55.224Z,76.93
2018-05-24T15:44:23.532Z,79.31
2018-05-24T15:46:51.771Z,78.50
2018-05-24T15:49:20.855Z,78.63
2018-05-24T15:51:49.126Z,77.98
2018-05-24T15:54:17.403Z,81.21
2018-05-24T15:56:48.827Z,82.20
2018-05-24T15:59:17.141Z,80.69
2018-05-24T16:01:45.425Z,80.94
2018-05-24T16:04:13.910Z,81.42
2018-05-24T16:06:42.919Z,81.08
2018-05-24T16:09:11.312Z,78.80
2018-05-24T16:11:39.637Z,80.38
2018-05-24T16:14:07.993Z,78.83
2018-05-24T16:16:36.307Z,76.02
2018-05-24T16:19:04.608Z,76.36
2018-05-24T16:21:32.979Z,75.40
2018-05-24T16:24:01.365Z,77.20
2018-05-24T16:26:29.782Z,74.56
2018-05-24T16:28:58.036Z,77.60
2018-05-24T16:31:27.083Z,74.69
2018-05-24T16:33:55.415Z,71.83
2018-05-24T16:36:23.657Z,69.78
2018-05-24T16:38:51.922Z,68.20
2018-05-24T16:41:20.245Z,67.47
2018-05-24T16:43:48.500Z,67.35
2018-05-24T16:46:16.848Z,66.76
2018-05-24T16:48:45.116Z,65.00
2018-05-24T16:51:13.390Z,64.65
2018-05-24T16:53:41.660Z,65.65
2018-05-24T16:56:09.943Z,66.54
2018-05-24T16:58:38.969Z,65.75
2018-05-24T17:01:07.229Z,66.12
2018-05-24T17:03:35.555Z,65.24
2018-05-24T17:06:03.843Z,65.12
2018-05-24T17:08:32.241Z,64.68
2018-05-24T17:11:02.780Z,64.43
2018-05-24T17:13:31.044Z,63.67
2018-05-24T17:15:59.847Z,64.22
2018-05-24T17:18:28.863Z,62.91
2018-05-24T17:20:57.133Z,62.29
2018-05-24T17:23:25.447Z,63.18
2018-05-24T17:25:54.484Z,61.81
2018-05-24T17:28:22.791Z,62.45
2018-05-24T17:30:51.017Z,62.69
2018-05-24T17:33:21.160Z,62.18
2018-05-24T17:35:49.585Z,62.88
2018-05-24T17:38:17.850Z,61.99
2018-05-24T17:40:46.138Z,61.92
2018-05-24T17:43:15.151Z,62.87
2018-05-24T17:45:43.460Z,62.11
2018-05-24T17:48:11.761Z,61.06
2018-05-24T17:50:40.122Z,60.95
2018-05-24T17:53:08.378Z,60.94
2018-05-24T17:55:36.687Z,61.00
2018-05-24T17:58:09.659Z,61.64
2018-05-24T18:00:38.013Z,61.22
2018-05-24T18:03:06.285Z,61.15
2018-05-24T18:05:39.150Z,61.17
2018-05-24T18:08:08.574Z,61.15
2018-05-24T18:10:37.580Z,61.53
2018-05-24T18:13:06.846Z,61.77
2018-05-24T18:15:40.191Z,61.21
2018-05-24T18:18:08.558Z,61.63
2018-05-24T18:20:36.824Z,61.72
2018-05-24T18:23:05.086Z,62.52
2018-05-24T18:25:34.134Z,61.76
2018-05-24T18:28:02.499Z,61.76
2018-05-24T18:30:31.611Z,62.40
2018-05-24T18:33:00.652Z,62.03
2018-05-24T18:35:28.946Z,61.88
2018-05-24T18:37:57.203Z,62.09
2018-05-24T18:40:25.504Z,61.91
2018-05-24T18:42:53.858Z,61.91
2018-05-24T18:45:22.797Z,61.97
2018-05-24T18:47:51.093Z,61.97
2018-05-24T18:50:22.042Z,62.47
2018-05-24T18:52:50.328Z,62.43
2018-05-24T18:55:18.583Z,62.33
2018-05-24T18:57:46.901Z,62.32
2018-05-24T19:00:15.947Z,62.39
2018-05-24T19:02:44.225Z,63.12
2018-05-24T19:05:12.497Z,63.05
2018-05-24T19:07:40.747Z,63.00
2018-05-24T19:10:09.019Z,62.80
2018-05-24T19:12:37.298Z,62.70
2018-05-24T19:15:05.653Z,63.54
2018-05-24T19:17:33.914Z,63.53
2018-05-24T19:20:02.934Z,63.74
2018-05-24T19:22:31.988Z,63.96
2018-05-24T19:25:00.270Z,63.83
2018-05-24T19:27:28.529Z,63.61
2018-05-24T19:29:57.549Z,63.53
2018-05-24T19:32:25.817Z,64.05
2018-05-24T19:34:54.854Z,63.78
2018-05-24T19:37:23.099Z,63.90
2018-05-24T19:39:51.420Z,64.74
2018-05-24T19:42:19.689Z,64.40
2018-05-24T19:44:48.707Z,64.04
2018-05-24T19:47:16.991Z,64.16
2018-05-24T19:49:45.241Z,64.52
2018-05-24T19:52:13.542Z,64.67
2018-05-24T19:54:42.697Z,64.59
2018-05-24T19:57:11.700Z,64.79
2018-05-24T19:59:39.969Z,65.11
2018-05-24T20:02:08.276Z,65.24
2018-05-24T20:04:37.315Z,65.49
2018-05-24T20:07:05.607Z,65.95
2018-05-24T20:09:33.879Z,64.90
2018-05-24T20:12:02.149Z,65.04
2018-05-24T20:14:31.189Z,65.54
2018-05-24T20:16:59.476Z,65.02
2018-05-24T20:19:27.754Z,65.88
2018-05-24T20:21:56.009Z,65.90
2018-05-24T20:24:24.297Z,65.68
2018-05-24T20:26:52.556Z,65.57
2018-05-24T20:29:20.824Z,65.77
2018-05-24T20:31:49.086Z,66.11
2018-05-24T20:34:18.108Z,65.96
2018-05-24T20:36:46.502Z,65.79
2018-05-24T20:39:14.802Z,66.43
2018-05-24T20:41:43.143Z,66.07
2018-05-24T20:44:11.356Z,65.99
2018-05-24T20:46:39.895Z,66.23
2018-05-24T20:49:08.155Z,66.26
2018-05-24T20:51:36.427Z,66.36
2018-05-24T20:54:05.476Z,66.60
2018-05-24T20:56:33.762Z,66.13
2018-05-24T20:59:02.043Z,66.29
2018-05-24T21:01:30.450Z,66.80
2018-05-24T21:03:58.704Z,66.73
2018-05-24T21:06:27.733Z,66.77
2018-05-24T21:08:56.020Z,66.98
2018-05-24T21:11:24.613Z,67.05
2018-05-24T21:13:53.826Z,67.17
2018-05-24T21:16:23.335Z,67.10
2018-05-24T21:18:52.330Z,66.92
2018-05-24T21:21:20.739Z,67.21
2018-05-24T21:23:50.848Z,67.27
2018-05-24T21:26:20.143Z,67.00
2018-05-24T21:28:50.749Z,67.17
2018-05-24T21:31:21.369Z,67.51
2018-05-24T21:33:49.771Z,67.03
2018-05-24T21:36:18.073Z,67.41
2018-05-24T21:38:46.471Z,67.54
2018-05-24T21:41:16.154Z,67.85
2018-05-24T21:43:44.652Z,67.85
2018-05-24T21:46:16.240Z,68.01
2018-05-24T21:48:48.157Z,68.07
2018-05-24T21:51:16.780Z,68.40
2018-05-24T21:53:45.468Z,68.92
2018-05-24T21:56:16.775Z,68.87
2018-05-24T21:58:45.697Z,69.21
2018-05-24T22:01:14.746Z,69.38
2018-05-24T22:03:45.948Z,69.80
2018-05-24T22:06:16.641Z,69.90
2018-05-24T22:08:44.909Z,69.67
2018-05-24T22:11:13.288Z,69.60
2018-05-24T22:13:41.574Z,69.65
2018-05-24T22:16:09.860Z,69.68
2018-05-24T22:18:38.175Z,69.91
2018-05-24T22:21:06.461Z,69.82
2018-05-24T22:23:34.723Z,69.97
2018-05-24T22:26:03.762Z,70.17
2018-05-24T22:28:32.025Z,70.59
2018-05-24T22:31:00.309Z,70.84
2018-05-24T22:33:29.403Z,70.67
2018-05-24T22:35:58.428Z,71.29
2018-05-24T22:38:26.702Z,70.98
2018-05-24T22:40:55.731Z,71.03
2018-05-24T22:43:24.020Z,71.75
2018-05-24T22:45:53.053Z,71.48
2018-05-24T22:48:21.529Z,71.83
2018-05-24T22:50:49.805Z,71.79
2018-05-24T22:53:18.842Z,72.12
2018-05-24T22:55:47.399Z,72.15
2018-05-24T22:58:16.515Z,72.12
2018-05-24T23:00:45.628Z,72.25
2018-05-24T23:03:14.771Z,72.37
2018-05-24T23:05:43.026Z,72.25
2018-05-24T23:08:12.091Z,72.14
2018-05-24T23:10:40.383Z,72.15
2018-05-24T23:13:08.670Z,72.26
2018-05-24T23:15:36.962Z,72.35
2018-05-24T23:18:05.254Z,72.52
2018-05-24T23:20:33.534Z,73.01
2018-05-24T23:23:01.876Z,72.68
2018-05-24T23:25:30.930Z,72.86
2018-05-24T23:27:59.195Z,72.86
2018-05-24T23:30:27.469Z,73.37
2018-05-24T23:32:56.538Z,73.28
2018-05-24T23:35:24.795Z,73.50
2018-05-24T23:37:53.283Z,73.49
2018-05-24T23:40:21.551Z,73.37
2018-05-24T23:42:49.866Z,73.47
2018-05-24T23:45:18.135Z,74.21
2018-05-24T23:47:47.254Z,74.18
2018-05-24T23:50:16.277Z,74.25
2018-05-24T23:52:44.543Z,74.46
2018-05-24T23:55:13.593Z,74.79
2018-05-24T23:57:41.863Z,74.44
